EGXW/WTN METAR and TAF weather

Enter ICAO airport designator
Station Type Date Time Source
EGXW METAR 2019/05/19 19:50 UTC NOAA

EGXW 191950Z AUTO 27003KT 9999 OVC060/// 14/11 Q1011


Station Type Date Time Source
EGXW Decoded METAR 2019/05/19 19:50 UTC NOAA

Waddington, United Kingdom (EGXW) 53-10N 000-31W 0M
May 19, 2019 - 03:50 PM EDT / 2019.05.19 1950 UTC
Wind: from the W (270 degrees) at 3 MPH (3 KT):0
Visibility: greater than 7 mile(s):0
Sky conditions: overcast
Temperature: 57 F (14 C)
Dew Point: 51 F (11 C)
Relative Humidity: 82%
Pressure (altimeter): 29.85 in. Hg (1011 hPa)
ob: EGXW 191950Z AUTO 27003KT 9999 OVC060/// 14/11 Q1011
cycle: 20

Station Type Date Time Source
EGXW TAF 2019/05/19 18:46 UTC NOAA

TAF EGXW 191642Z 1918/2012 VRB05KT 9999 SCT030 PROB30
TEMPO 1918/1919 4000 SHRA
BECMG 1920/1924 4000 BR PROB30 1923/2006 0200 FG VV///
BECMG 2006/2009 7000 HZ SCT004
BECMG 2009/2012 9999 NSW SCT025

Example: see airport list